Time;durP1;ratioP1;P1;durP2;ratioP2;P2;SDS_P1;SDS_P2;PMS_P1;PMS_P2;Temp;Humidity;BMP_temperature;BMP_pressure;BME280_temperature;BME280_humidity;BME280_pressure;Samples;Min_cycle;Max_cycle;Signal;HPM_P1;HPM_P2
2023/07/18 00:00:25;;;;;;;13.17;2.90;;;14.60;99.90;;;;;;4953301;28;20188;-85
2023/07/18 00:02:54;;;;;;;1.70;1.50;;;14.60;99.90;;;;;;4953808;28;20459;-84
2023/07/18 00:05:21;;;;;;;1.57;1.33;;;14.60;99.90;;;;;;4969231;28;20185;-84
2023/07/18 00:07:47;;;;;;;4.70;1.77;;;14.60;99.90;;;;;;4953370;28;20279;-85
2023/07/18 00:10:13;;;;;;;2.13;1.20;;;14.60;99.90;;;;;;4969537;28;20199;-83
2023/07/18 00:12:40;;;;;;;5.63;1.80;;;14.60;99.90;;;;;;4955210;28;20192;-85
2023/07/18 00:15:07;;;;;;;4.33;2.23;;;14.50;99.90;;;;;;4974721;28;20177;-84
2023/07/18 00:17:34;;;;;;;2.03;1.63;;;14.50;99.90;;;;;;4974376;28;20193;-85
2023/07/18 00:20:00;;;;;;;2.20;1.90;;;14.40;99.90;;;;;;4957223;28;20187;-85
2023/07/18 00:22:26;;;;;;;4.77;1.33;;;14.40;99.90;;;;;;4973254;28;20177;-84
2023/07/18 00:24:52;;;;;;;6.43;1.60;;;14.40;99.90;;;;;;4972835;28;20184;-84
2023/07/18 00:27:18;;;;;;;3.50;1.83;;;14.40;99.90;;;;;;4941118;28;20271;-84
2023/07/18 00:29:43;;;;;;;4.33;1.87;;;14.40;99.90;;;;;;4957301;28;20699;-84
2023/07/18 00:32:10;;;;;;;2.20;1.43;;;14.40;99.90;;;;;;4956735;28;20176;-84
2023/07/18 00:34:36;;;;;;;5.67;1.90;;;14.40;99.90;;;;;;4945259;28;20311;-84
2023/07/18 00:37:03;;;;;;;5.77;1.70;;;14.40;99.90;;;;;;4976261;28;20283;-84
2023/07/18 00:39:28;;;;;;;3.23;1.33;;;14.40;99.90;;;;;;4976022;28;20180;-84
2023/07/18 00:41:54;;;;;;;3.67;2.07;;;14.50;99.90;;;;;;4975858;28;20184;-85
2023/07/18 00:44:20;;;;;;;2.20;1.73;;;14.50;99.90;;;;;;4958738;28;20186;-85
2023/07/18 00:46:46;;;;;;;3.77;2.00;;;14.50;99.90;;;;;;4959568;28;20295;-84
2023/07/18 00:49:12;;;;;;;17.57;2.07;;;14.50;99.90;;;;;;4959565;28;20216;-84
2023/07/18 00:51:38;;;;;;;2.97;1.83;;;14.50;99.90;;;;;;4959684;28;20224;-84
2023/07/18 00:54:04;;;;;;;6.53;2.27;;;14.50;99.90;;;;;;4992865;28;20720;-84
2023/07/18 00:56:30;;;;;;;2.13;1.90;;;14.50;99.90;;;;;;4993052;28;20271;-84
2023/07/18 00:58:56;;;;;;;2.37;1.50;;;14.50;99.90;;;;;;4959827;28;20287;-84
2023/07/18 01:01:22;;;;;;;1.87;1.33;;;14.50;99.90;;;;;;4975664;28;20259;-84
2023/07/18 01:03:48;;;;;;;2.10;1.83;;;14.50;99.90;;;;;;4975913;28;20180;-84
2023/07/18 01:06:14;;;;;;;4.67;2.30;;;14.60;99.90;;;;;;4975538;28;20184;-84
2023/07/18 01:08:40;;;;;;;3.03;1.50;;;14.60;99.90;;;;;;4993001;28;20275;-85
2023/07/18 01:14:44;;;;;;;2.40;1.80;;;14.60;99.90;;;;;;4993455;28;20630;-87
2023/07/18 01:17:17;;;;;;;4.83;2.57;;;14.60;99.90;;;;;;4960059;28;20224;-87
2023/07/18 01:19:55;;;;;;;13.30;1.87;;;14.60;99.90;;;;;;4976880;28;20171;-87
2023/07/18 01:22:38;;;;;;;10.93;1.93;;;14.60;99.90;;;;;;4959725;28;20211;-88
2023/07/18 01:28:16;;;;;;;3.90;1.73;;;14.60;99.90;;;;;;4947894;28;20204;-86
2023/07/18 01:30:48;;;;;;;2.07;1.70;;;14.60;99.90;;;;;;4960912;28;20171;-86
2023/07/18 01:33:23;;;;;;;4.93;1.87;;;14.60;99.90;;;;;;4949555;28;20227;-85
2023/07/18 01:38:56;;;;;;;2.67;1.40;;;14.60;99.90;;;;;;4967647;28;20438;-86
2023/07/18 01:41:25;;;;;;;5.67;1.60;;;14.60;99.90;;;;;;4943638;28;20190;-85
2023/07/18 01:43:59;;;;;;;11.10;2.33;;;14.60;99.90;;;;;;4959881;28;20754;-85
2023/07/18 01:46:41;;;;;;;5.53;1.83;;;14.60;99.90;;;;;;4975442;28;20566;-86
2023/07/18 01:49:19;;;;;;;4.63;1.70;;;14.60;99.90;;;;;;4975478;28;20529;-86
2023/07/18 01:51:47;;;;;;;7.83;1.60;;;14.60;99.90;;;;;;4959616;28;20231;-86
2023/07/18 01:54:32;;;;;;;2.30;1.53;;;14.60;99.90;;;;;;4959553;28;20238;-86
2023/07/18 01:57:11;;;;;;;5.53;1.73;;;14.60;99.90;;;;;;4975132;28;20227;-86
2023/07/18 01:59:37;;;;;;;2.13;1.33;;;14.50;99.90;;;;;;4959469;28;20192;-86
2023/07/18 02:13:28;;;;;;;;;;;;;;;;;;;;;
2023/07/18 02:16:21;;;;;;;1.50;1.20;;;14.50;99.90;;;;;;4991638;28;20290;-87
2023/07/18 02:18:50;;;;;;;5.30;2.40;;;14.50;99.90;;;;;;4991952;28;20262;-87
2023/07/18 02:21:28;;;;;;;5.53;1.93;;;14.50;99.90;;;;;;4965623;28;20690;-87
2023/07/18 02:24:21;;;;;;;2.40;1.73;;;14.50;99.90;;;;;;4978671;28;20164;-86
2023/07/18 02:27:05;;;;;;;1.83;1.67;;;14.50;99.90;;;;;;4944592;29;20718;-86
2023/07/18 02:29:31;;;;;;;5.40;1.93;;;14.50;99.90;;;;;;4930348;29;20206;-88
2023/07/18 02:32:10;;;;;;;4.47;1.43;;;14.50;99.90;;;;;;4919636;29;20237;-86
2023/07/18 02:34:38;;;;;;;5.93;1.97;;;14.50;99.90;;;;;;4955209;28;20696;-85
2023/07/18 02:37:09;;;;;;;5.90;2.07;;;14.50;99.90;;;;;;4946505;28;20244;-86
2023/07/18 02:43:21;;;;;;;1.77;1.30;;;14.50;99.90;;;;;;4948531;28;20221;-86
2023/07/18 02:49:16;;;;;;;16.93;3.17;;;14.40;99.90;;;;;;4948226;28;20304;-86
2023/07/18 02:51:41;;;;;;;3.27;1.97;;;14.40;99.90;;;;;;4947643;28;20248;-85
2023/07/18 02:54:13;;;;;;;8.33;2.10;;;14.40;99.90;;;;;;4939430;28;20217;-85
2023/07/18 03:04:00;;;;;;;6.23;1.60;;;14.30;99.90;;;;;;4939529;28;20657;-86
2023/07/18 03:06:59;;;;;;;6.30;2.20;;;14.30;99.90;;;;;;4935677;28;20285;-86
2023/07/18 03:09:28;;;;;;;2.87;2.67;;;14.30;99.90;;;;;;4957138;28;20216;-87
2023/07/18 03:11:59;;;;;;;3.67;2.10;;;14.30;99.90;;;;;;4972192;28;20181;-88
2023/07/18 03:14:36;;;;;;;3.17;2.17;;;14.30;99.90;;;;;;4955672;28;20568;-86
2023/07/18 03:17:12;;;;;;;5.00;1.93;;;14.30;99.90;;;;;;4970962;28;20230;-87
2023/07/18 03:19:40;;;;;;;2.00;1.90;;;14.30;99.90;;;;;;4973334;28;20293;-85
2023/07/18 03:22:31;;;;;;;2.30;2.10;;;14.30;99.90;;;;;;4971355;28;20220;-86
2023/07/18 03:25:16;;;;;;;7.00;2.23;;;14.30;99.90;;;;;;4988366;28;20678;-86
2023/07/18 03:27:48;;;;;;;3.13;2.60;;;14.30;99.90;;;;;;4971762;28;20634;-86
2023/07/18 03:30:14;;;;;;;6.33;2.33;;;14.30;99.90;;;;;;4988584;28;20172;-85
2023/07/18 03:32:48;;;;;;;2.13;1.73;;;14.40;99.90;;;;;;4989237;28;20288;-85
2023/07/18 03:35:26;;;;;;;3.60;2.03;;;14.30;99.90;;;;;;4977033;28;20322;-85
2023/07/18 03:37:57;;;;;;;6.90;1.73;;;14.30;99.90;;;;;;4937455;28;20247;-86
2023/07/18 03:40:29;;;;;;;3.23;2.67;;;14.30;99.90;;;;;;4953192;28;20244;-86
2023/07/18 03:42:57;;;;;;;7.70;2.27;;;14.30;99.90;;;;;;4965198;28;20223;-87
2023/07/18 03:45:26;;;;;;;3.33;2.33;;;14.30;99.90;;;;;;4986016;28;20787;-86
2023/07/18 03:48:04;;;;;;;;;;;;;;;;;;;;;
2023/07/18 03:50:36;;;;;;;4.23;2.23;;;14.30;99.90;;;;;;4962333;28;20708;-86
2023/07/18 03:53:09;;;;;;;2.70;1.97;;;14.30;99.90;;;;;;4962835;28;20845;-86
2023/07/18 03:55:44;;;;;;;2.77;2.50;;;14.30;99.90;;;;;;4962083;28;20224;-86
2023/07/18 03:58:33;;;;;;;4.67;3.87;;;14.30;99.90;;;;;;4961772;28;20221;-86
2023/07/18 04:01:10;;;;;;;3.47;2.30;;;14.40;99.90;;;;;;4969162;28;20271;-86
2023/07/18 04:03:54;;;;;;;1.63;1.50;;;14.40;99.90;;;;;;4969576;28;20271;-87
2023/07/18 04:06:49;;;;;;;2.17;1.70;;;14.50;99.90;;;;;;4969175;28;20646;-86
2023/07/18 04:09:18;;;;;;;3.17;2.07;;;14.50;99.90;;;;;;4973603;28;20173;-86
2023/07/18 04:12:05;;;;;;;7.00;2.60;;;14.60;99.90;;;;;;4971831;28;20176;-87
2023/07/18 04:14:53;;;;;;;;;;;;;;;;;;;;;
2023/07/18 04:17:35;;;;;;;2.90;2.50;;;14.70;99.90;;;;;;4989274;28;20220;-85
2023/07/18 04:20:05;;;;;;;5.73;3.27;;;14.80;99.90;;;;;;4989254;28;20223;-86
2023/07/18 04:22:57;;;;;;;9.50;2.97;;;14.80;99.90;;;;;;4988645;28;20219;-86
2023/07/18 04:25:49;;;;;;;2.50;1.87;;;14.90;99.90;;;;;;4971492;28;20227;-86
2023/07/18 04:28:32;;;;;;;4.83;2.40;;;14.90;99.90;;;;;;4971589;28;20231;-86
2023/07/18 04:30:58;;;;;;;5.43;2.33;;;14.90;99.90;;;;;;4955544;28;20216;-87
2023/07/18 04:33:24;;;;;;;3.57;2.77;;;15.00;99.90;;;;;;4968914;28;20460;-86
2023/07/18 04:35:53;;;;;;;4.27;2.60;;;15.00;99.90;;;;;;4960108;28;20728;-86
2023/07/18 04:38:22;;;;;;;5.70;2.63;;;15.00;99.90;;;;;;4967317;28;20237;-86
2023/07/18 04:40:51;;;;;;;3.40;2.20;;;15.00;99.90;;;;;;4927680;28;20216;-86
2023/07/18 04:43:27;;;;;;;4.33;2.20;;;15.10;99.90;;;;;;4962688;28;20223;-85
2023/07/18 04:46:00;;;;;;;2.77;2.50;;;15.10;99.90;;;;;;4957168;28;20231;-86
2023/07/18 04:48:26;;;;;;;4.47;2.23;;;15.10;99.90;;;;;;4969173;28;20216;-86
2023/07/18 04:51:00;;;;;;;3.10;2.40;;;15.20;99.90;;;;;;4937385;28;20192;-86
2023/07/18 04:53:27;;;;;;;4.47;2.67;;;15.40;99.90;;;;;;4971160;28;20211;-86
2023/07/18 04:55:57;;;;;;;4.37;2.87;;;15.40;99.90;;;;;;4970872;28;20223;-86
2023/07/18 04:58:34;;;;;;;3.87;1.90;;;15.50;99.90;;;;;;4972476;28;20307;-86
2023/07/18 05:01:02;;;;;;;4.90;2.50;;;15.50;99.90;;;;;;4944930;28;20222;-86
2023/07/18 05:03:34;;;;;;;3.67;1.53;;;15.60;99.90;;;;;;4965839;28;20219;-86
2023/07/18 05:06:02;;;;;;;3.70;2.43;;;15.70;99.90;;;;;;4959544;28;20378;-86
2023/07/18 05:08:32;;;;;;;3.03;1.97;;;15.80;99.90;;;;;;4954714;28;20584;-87
2023/07/18 05:11:09;;;;;;;3.20;2.60;;;15.90;99.90;;;;;;4969931;28;20235;-87
2023/07/18 05:13:40;;;;;;;3.53;1.97;;;16.10;99.90;;;;;;4981241;28;20298;-86
2023/07/18 05:16:15;;;;;;;6.30;2.43;;;16.40;99.90;;;;;;4960177;28;20220;-85
2023/07/18 05:18:40;;;;;;;2.33;2.13;;;16.60;99.90;;;;;;4962849;28;20287;-86
2023/07/18 05:21:07;;;;;;;4.80;2.50;;;16.70;99.90;;;;;;4923890;28;20185;-86
2023/07/18 05:23:36;;;;;;;5.43;2.10;;;16.80;99.90;;;;;;4956205;28;20244;-87
2023/07/18 05:26:07;;;;;;;5.60;1.90;;;16.90;99.90;;;;;;4955185;28;20216;-86
2023/07/18 05:28:33;;;;;;;4.57;1.83;;;16.90;99.90;;;;;;4951238;28;20275;-86
2023/07/18 05:31:07;;;;;;;3.57;2.43;;;17.00;99.90;;;;;;4989933;28;20212;-86
2023/07/18 05:33:38;;;;;;;9.93;2.40;;;17.30;99.90;;;;;;4974258;28;20221;-85
2023/07/18 05:36:10;;;;;;;7.30;2.40;;;17.80;99.90;;;;;;4984550;28;20238;-86
2023/07/18 05:38:51;;;;;;;5.93;2.20;;;18.10;99.90;;;;;;4957220;28;20231;-86
2023/07/18 05:41:23;;;;;;;2.63;2.20;;;18.90;99.90;;;;;;5010688;28;20281;-85
2023/07/18 05:43:55;;;;;;;7.73;2.97;;;19.70;99.90;;;;;;5010774;28;20306;-86
2023/07/18 05:46:32;;;;;;;3.40;1.43;;;20.20;99.90;;;;;;4993521;28;20219;-86
2023/07/18 05:49:07;;;;;;;2.87;1.60;;;20.60;99.90;;;;;;4976874;28;20219;-85
2023/07/18 05:55:43;;;;;;;3.30;1.63;;;23.30;99.90;;;;;;4989886;28;20384;-86
2023/07/18 05:58:14;;;;;;;3.73;1.73;;;23.90;99.90;;;;;;4985136;28;20314;-85
2023/07/18 06:00:45;;;;;;;3.87;1.63;;;23.80;99.90;;;;;;4992936;28;20223;-86
2023/07/18 06:03:22;;;;;;;1.80;1.70;;;23.40;99.90;;;;;;4993027;28;20178;-86
2023/07/18 06:05:55;;;;;;;7.60;1.87;;;22.80;99.90;;;;;;4993361;28;20245;-87
2023/07/18 06:08:24;;;;;;;2.50;1.87;;;22.20;99.90;;;;;;4992334;28;20219;-87
2023/07/18 06:10:56;;;;;;;6.30;1.63;;;21.80;99.90;;;;;;4975167;28;20223;-88
2023/07/18 06:13:23;;;;;;;3.43;1.80;;;21.50;99.90;;;;;;4975255;28;20291;-86
2023/07/18 06:15:51;;;;;;;2.00;1.37;;;21.60;99.90;;;;;;5008013;28;20302;-86
2023/07/18 06:18:17;;;;;;;3.43;1.53;;;21.60;99.90;;;;;;4975039;28;20215;-86
2023/07/18 06:20:43;;;;;;;3.97;1.87;;;21.50;99.90;;;;;;5009070;28;20188;-85
2023/07/18 06:23:09;;;;;;;4.47;1.73;;;21.70;99.90;;;;;;4990963;28;20752;-85
2023/07/18 06:25:35;;;;;;;3.50;1.43;;;21.90;99.90;;;;;;4990866;28;20223;-86
2023/07/18 06:28:02;;;;;;;2.53;1.80;;;21.90;99.90;;;;;;4974915;28;20698;-86
2023/07/18 06:30:29;;;;;;;5.50;2.73;;;23.60;99.90;;;;;;4991032;28;20211;-86
2023/07/18 06:32:55;;;;;;;5.10;2.53;;;26.70;99.90;;;;;;4991890;28;20585;-86
2023/07/18 06:35:21;;;;;;;1.73;1.40;;;28.80;99.90;;;;;;4990617;28;20242;-84
2023/07/18 06:37:46;;;;;;;2.03;1.40;;;30.10;99.90;;;;;;4992242;28;20676;-88
2023/07/18 06:40:13;;;;;;;2.47;1.10;;;31.10;99.90;;;;;;4968081;28;20234;-87
2023/07/18 06:42:39;;;;;;;4.05;1.58;;;29.40;99.90;;;;;;4991047;28;20226;-87
2023/07/18 06:45:06;;;;;;;1.70;1.60;;;28.30;99.90;;;;;;4991526;28;20206;-88
2023/07/18 06:47:32;;;;;;;2.55;1.48;;;28.70;99.90;;;;;;4959327;28;20265;-87
2023/07/18 06:49:58;;;;;;;1.17;1.08;;;30.50;99.90;;;;;;5008455;28;20226;-87
2023/07/18 06:52:24;;;;;;;1.55;1.40;;;32.30;99.90;;;;;;4990791;28;20245;-85
2023/07/18 06:54:51;;;;;;;3.33;1.42;;;33.60;99.90;;;;;;4990616;28;20676;-87
2023/07/18 06:57:18;;;;;;;3.85;1.10;;;34.10;99.90;;;;;;5007600;28;20211;-86
2023/07/18 06:59:43;;;;;;;4.00;1.63;;;34.60;99.90;;;;;;4975091;28;20191;-86
2023/07/18 07:02:17;;;;;;;2.25;1.05;;;34.30;99.90;;;;;;4990475;28;20219;-88
2023/07/18 07:04:43;;;;;;;1.95;1.02;;;33.10;99.90;;;;;;4998726;28;20223;-86
2023/07/18 07:07:09;;;;;;;1.92;0.98;;;32.20;99.90;;;;;;4989753;28;20320;-86
2023/07/18 07:09:46;;;;;;;6.07;1.13;;;32.90;99.90;;;;;;4990329;28;20267;-87
2023/07/18 07:12:15;;;;;;;1.83;1.30;;;33.80;99.90;;;;;;4990326;28;20450;-86
2023/07/18 07:14:41;;;;;;;1.85;1.00;;;32.80;99.90;;;;;;4975332;28;20180;-86
2023/07/18 07:17:08;;;;;;;1.85;1.20;;;31.50;99.90;;;;;;4989688;28;20282;-87
2023/07/18 07:19:33;;;;;;;1.58;1.00;;;29.70;99.90;;;;;;4970457;28;20354;-86
2023/07/18 07:21:59;;;;;;;1.40;0.88;;;28.70;99.90;;;;;;4970438;28;20250;-86
2023/07/18 07:24:26;;;;;;;7.40;1.50;;;27.30;99.90;;;;;;4987942;28;20233;-87
2023/07/18 07:26:51;;;;;;;1.38;1.00;;;26.90;99.90;;;;;;4988278;28;20353;-89
2023/07/18 07:29:17;;;;;;;1.20;1.10;;;26.00;99.90;;;;;;4970799;28;20681;-85
2023/07/18 07:31:43;;;;;;;1.42;1.02;;;26.10;99.90;;;;;;4970250;28;20769;-87
2023/07/18 07:34:10;;;;;;;1.60;0.90;;;27.60;99.90;;;;;;4967064;28;20588;-85
2023/07/18 07:36:36;;;;;;;1.20;1.10;;;28.00;99.90;;;;;;4945589;28;20256;-86
2023/07/18 07:39:03;;;;;;;3.00;0.70;;;28.80;99.90;;;;;;4968869;28;20658;-85
2023/07/18 07:41:29;;;;;;;3.40;1.08;;;28.10;99.90;;;;;;4970513;28;20216;-85
2023/07/18 07:43:55;;;;;;;2.42;1.02;;;27.80;99.90;;;;;;4987810;28;20738;-85
2023/07/18 07:46:20;;;;;;;1.90;1.27;;;27.70;99.90;;;;;;4954099;28;20215;-85
2023/07/18 07:48:46;;;;;;;3.40;1.08;;;28.60;99.90;;;;;;4954109;28;20224;-86
2023/07/18 07:51:18;;;;;;;3.80;0.80;;;29.60;99.90;;;;;;4987635;28;20222;-87
2023/07/18 07:53:44;;;;;;;0.90;0.90;;;30.50;99.90;;;;;;4955344;28;20271;-88
2023/07/18 07:56:13;;;;;;;1.38;1.27;;;30.30;99.90;;;;;;4970344;28;20299;-86
2023/07/18 07:58:38;;;;;;;1.00;0.95;;;30.30;99.90;;;;;;4966857;28;20228;-85
2023/07/18 08:01:12;;;;;;;2.85;1.10;;;31.00;99.90;;;;;;4929206;28;20280;-88
2023/07/18 08:04:01;;;;;;;2.03;0.77;;;31.40;99.90;;;;;;4963348;28;20208;-87
2023/07/18 08:06:38;;;;;;;1.23;0.88;;;31.10;99.90;;;;;;4967345;28;20216;-87
2023/07/18 08:09:15;;;;;;;2.95;1.05;;;30.60;99.90;;;;;;4951384;28;20287;-87
2023/07/18 08:12:10;;;;;;;1.75;1.00;;;29.00;99.90;;;;;;4941685;28;20291;-87
2023/07/18 08:14:39;;;;;;;3.00;1.27;;;28.40;99.90;;;;;;4967748;28;20733;-88
2023/07/18 08:17:06;;;;;;;0.70;0.70;;;28.50;99.90;;;;;;4982311;28;20232;-88
2023/07/18 08:19:46;;;;;;;2.63;0.82;;;28.60;99.90;;;;;;4981445;28;20388;-89
2023/07/18 08:22:26;;;;;;;1.58;0.80;;;29.00;99.90;;;;;;4970972;28;20223;-88
2023/07/18 08:25:18;;;;;;;1.27;0.88;;;29.10;99.90;;;;;;4972172;28;20362;-88
2023/07/18 08:27:54;;;;;;;1.88;1.10;;;29.60;99.90;;;;;;4951505;28;20216;-87
2023/07/18 08:30:28;;;;;;;1.98;1.10;;;29.90;99.90;;;;;;4951528;28;20165;-88
2023/07/18 08:32:59;;;;;;;2.65;0.98;;;31.30;99.90;;;;;;4968149;28;20177;-87
2023/07/18 08:35:36;;;;;;;1.25;0.90;;;31.50;99.90;;;;;;4940239;28;20236;-88
2023/07/18 08:38:10;;;;;;;0.95;0.93;;;32.40;99.90;;;;;;4928859;28;20314;-88
2023/07/18 08:40:43;;;;;;;1.38;0.95;;;33.20;99.90;;;;;;4959091;28;20587;-87
2023/07/18 08:43:14;;;;;;;1.25;1.00;;;32.90;99.90;;;;;;4973978;28;20303;-88
2023/07/18 08:45:46;;;;;;;0.85;0.85;;;33.50;99.90;;;;;;4974072;28;20223;-87
2023/07/18 08:48:27;;;;;;;1.33;0.73;;;32.90;99.90;;;;;;4964467;28;20172;-87
2023/07/18 08:50:54;;;;;;;0.82;0.65;;;33.10;99.90;;;;;;4990961;28;20186;-86
2023/07/18 08:53:22;;;;;;;1.20;1.05;;;33.30;99.90;;;;;;4991485;28;20258;-89
2023/07/18 08:55:49;;;;;;;1.15;0.80;;;34.10;99.90;;;;;;4963982;28;20299;-87
2023/07/18 08:58:20;;;;;;;3.08;0.90;;;34.40;99.90;;;;;;4973116;28;20236;-88
2023/07/18 09:00:48;;;;;;;0.60;0.55;;;34.20;99.90;;;;;;4973355;28;20665;-87
2023/07/18 09:03:17;;;;;;;1.35;0.80;;;34.30;99.90;;;;;;4973752;28;20267;-88
2023/07/18 09:06:27;;;;;;;0.80;0.80;;;34.50;99.90;;;;;;4991681;28;20324;-89
2023/07/18 09:08:58;;;;;;;0.80;0.70;;;34.40;99.90;;;;;;4939419;28;21307;-88
2023/07/18 09:11:29;;;;;;;0.77;0.70;;;33.50;99.40;;;;;;4989192;28;20212;-88
2023/07/18 09:13:55;;;;;;;1.15;0.70;;;32.50;98.90;;;;;;4956914;28;20299;-87
2023/07/18 09:16:26;;;;;;;2.08;1.00;;;31.40;99.90;;;;;;4979108;28;20307;-88
2023/07/18 09:18:55;;;;;;;1.50;0.63;;;31.30;99.90;;;;;;4967257;28;20302;-88
2023/07/18 09:21:27;;;;;;;1.80;0.90;;;31.50;99.90;;;;;;4969175;28;20287;-87
2023/07/18 09:24:13;;;;;;;0.73;0.70;;;30.10;99.90;;;;;;4951810;28;20568;-87
2023/07/18 09:26:45;;;;;;;1.00;0.70;;;28.90;99.90;;;;;;4970999;28;20657;-87
2023/07/18 09:29:21;;;;;;;1.38;0.68;;;28.40;99.90;;;;;;4952865;28;20212;-88
2023/07/18 09:31:57;;;;;;;1.58;0.82;;;29.70;99.90;;;;;;4982848;28;20370;-87
2023/07/18 09:34:27;;;;;;;0.68;0.60;;;28.80;99.90;;;;;;4978540;28;20222;-89
2023/07/18 09:37:01;;;;;;;0.98;0.70;;;27.80;99.90;;;;;;4972738;28;20318;-87
2023/07/18 09:39:33;;;;;;;4.05;1.30;;;27.20;99.90;;;;;;4955145;28;20228;-88
2023/07/18 09:42:02;;;;;;;0.80;0.52;;;27.20;99.90;;;;;;4972189;28;20192;-88
2023/07/18 09:44:48;;;;;;;0.63;0.63;;;27.90;99.90;;;;;;4988019;28;20215;-89
2023/07/18 09:47:30;;;;;;;2.80;1.05;;;28.00;99.90;;;;;;4956637;28;20246;-90
2023/07/18 09:50:12;;;;;;;0.68;0.52;;;25.30;99.90;;;;;;4925401;28;20224;-88
2023/07/18 09:52:57;;;;;;;1.35;0.85;;;24.20;99.90;;;;;;4982184;28;20488;-88
2023/07/18 09:55:34;;;;;;;0.93;0.55;;;23.70;99.90;;;;;;4980429;28;20227;-87
2023/07/18 09:58:17;;;;;;;0.73;0.70;;;24.10;99.90;;;;;;4970787;28;20255;-88
2023/07/18 10:00:56;;;;;;;1.65;0.77;;;23.30;99.90;;;;;;4961804;28;20235;-88
2023/07/18 10:03:32;;;;;;;2.65;0.73;;;22.70;99.90;;;;;;4971905;28;20268;-88
2023/07/18 10:06:28;;;;;;;0.88;0.88;;;22.30;99.90;;;;;;4958644;28;20176;-87
2023/07/18 10:09:15;;;;;;;1.30;1.17;;;21.90;99.90;;;;;;4978301;28;20227;-87
2023/07/18 10:12:00;;;;;;;2.13;0.80;;;21.50;99.90;;;;;;4988626;28;20176;-87
2023/07/18 10:14:57;;;;;;;1.25;1.15;;;22.20;99.90;;;;;;4973770;28;20292;-88
2023/07/18 10:18:01;;;;;;;0.70;0.65;;;22.10;99.90;;;;;;4977406;28;20368;-87
2023/07/18 10:20:34;;;;;;;1.30;0.90;;;23.10;99.90;;;;;;4988856;28;20481;-89
2023/07/18 10:23:08;;;;;;;0.65;0.65;;;24.80;99.90;;;;;;4974375;28;20296;-87
2023/07/18 10:25:39;;;;;;;2.40;1.02;;;25.40;99.90;;;;;;4959875;28;20224;-88
2023/07/18 10:28:16;;;;;;;0.73;0.73;;;25.10;99.90;;;;;;4969183;28;20228;-88
2023/07/18 10:31:06;;;;;;;1.00;0.82;;;24.10;99.90;;;;;;4974613;28;20689;-88
2023/07/18 10:33:57;;;;;;;2.88;1.08;;;23.80;99.90;;;;;;4963698;28;20302;-86
2023/07/18 10:36:56;;;;;;;1.90;0.90;;;23.90;99.90;;;;;;4949701;28;20236;-87
2023/07/18 10:39:52;;;;;;;5.43;1.13;;;24.30;99.90;;;;;;4977733;28;20485;-89
2023/07/18 10:43:01;;;;;;;;;;;;;;;;;;;;;
2023/07/18 10:46:27;;;;;;;;;;;;;;;;;;;;;
2023/07/18 10:49:17;;;;;;;1.35;0.90;;;22.60;99.90;;;;;;4964077;28;20294;-87
2023/07/18 10:52:01;;;;;;;1.75;0.80;;;23.70;99.90;;;;;;4969975;28;20222;-86
2023/07/18 11:02:46;;;;;;;1.50;0.90;;;22.60;99.90;;;;;;4991725;28;20257;-88
2023/07/18 11:05:48;;;;;;;0.85;0.65;;;23.30;99.90;;;;;;4965281;28;20294;-86
2023/07/18 11:08:47;;;;;;;1.00;0.95;;;22.90;99.90;;;;;;4906243;28;20218;-86
2023/07/18 11:11:15;;;;;;;1.38;0.80;;;22.70;99.90;;;;;;4978233;28;20245;-86
2023/07/18 11:13:50;;;;;;;1.38;0.90;;;22.80;99.90;;;;;;4971589;28;20238;-88
2023/07/18 11:16:39;;;;;;;1.20;0.82;;;23.00;99.90;;;;;;4956813;28;20270;-85
2023/07/18 11:19:13;;;;;;;0.90;0.75;;;22.80;99.90;;;;;;4951145;28;20188;-86
2023/07/18 11:21:46;;;;;;;2.65;0.68;;;22.90;99.90;;;;;;4951320;28;20284;-86
2023/07/18 11:24:23;;;;;;;2.67;0.85;;;22.70;99.90;;;;;;4967151;28;20297;-85
2023/07/18 11:27:21;;;;;;;1.05;0.70;;;22.40;99.90;;;;;;4951507;28;20192;-86
2023/07/18 11:30:21;;;;;;;0.93;0.93;;;22.10;99.90;;;;;;4961755;28;20802;-85
2023/07/18 11:32:49;;;;;;;0.88;0.60;;;21.70;99.90;;;;;;4963435;28;20189;-85
2023/07/18 11:35:20;;;;;;;0.70;0.70;;;21.50;99.90;;;;;;4943227;28;20596;-86
2023/07/18 11:37:59;;;;;;;1.45;0.80;;;21.30;99.90;;;;;;4965012;28;20254;-88
2023/07/18 11:40:26;;;;;;;1.00;0.98;;;21.30;99.90;;;;;;4947186;28;20364;-85
2023/07/18 11:45:44;;;;;;;0.80;0.80;;;21.10;99.90;;;;;;4978763;28;20219;-85
2023/07/18 11:48:13;;;;;;;0.60;0.60;;;21.30;99.90;;;;;;4990179;28;20168;-86
2023/07/18 11:51:14;;;;;;;0.80;0.80;;;21.50;99.90;;;;;;4988665;28;20210;-85
2023/07/18 11:53:39;;;;;;;2.73;0.77;;;21.80;99.90;;;;;;4982151;28;20215;-86
2023/07/18 11:56:05;;;;;;;1.00;0.80;;;22.20;99.90;;;;;;4973711;28;20264;-86
2023/07/18 11:58:34;;;;;;;1.53;0.90;;;22.80;99.90;;;;;;4997147;28;20243;-85
2023/07/18 12:01:12;;;;;;;0.73;0.73;;;22.80;99.90;;;;;;4990872;28;20217;-88
2023/07/18 12:03:46;;;;;;;1.00;0.87;;;22.90;99.90;;;;;;5007262;28;20222;-84
2023/07/18 12:06:12;;;;;;;0.60;0.60;;;22.90;99.90;;;;;;4965240;28;20171;-84
2023/07/18 12:08:43;;;;;;;1.77;0.70;;;22.40;99.90;;;;;;4991959;28;20364;-86
2023/07/18 12:11:10;;;;;;;3.50;1.13;;;22.20;99.90;;;;;;4997628;28;20214;-85
2023/07/18 12:13:44;;;;;;;1.58;0.82;;;22.30;99.90;;;;;;5011512;28;20273;-85
2023/07/18 12:16:10;;;;;;;1.02;0.90;;;22.60;99.90;;;;;;4969567;28;20685;-85
2023/07/18 12:18:36;;;;;;;1.88;0.85;;;22.50;99.90;;;;;;5011126;28;20272;-86
2023/07/18 12:21:02;;;;;;;1.98;0.60;;;22.50;99.90;;;;;;4993220;28;20219;-84
2023/07/18 12:23:33;;;;;;;1.50;0.82;;;22.50;99.90;;;;;;4968743;28;20234;-87
2023/07/18 12:26:02;;;;;;;1.38;1.10;;;22.50;99.90;;;;;;4983879;28;20215;-85
2023/07/18 12:28:28;;;;;;;3.28;1.15;;;22.50;99.90;;;;;;4993538;28;20227;-84
2023/07/18 12:31:02;;;;;;;0.85;0.70;;;22.50;99.90;;;;;;4983379;28;20219;-87
2023/07/18 12:33:31;;;;;;;0.75;0.70;;;22.50;99.90;;;;;;4978372;28;20260;-88
2023/07/18 12:36:05;;;;;;;1.38;0.75;;;22.80;99.90;;;;;;4993544;28;20637;-88
2023/07/18 12:38:38;;;;;;;2.20;1.02;;;23.00;99.90;;;;;;4980774;28;20406;-87
2023/07/18 12:41:08;;;;;;;3.53;1.48;;;23.30;99.90;;;;;;4992843;28;20235;-88
2023/07/18 12:43:36;;;;;;;1.35;1.17;;;23.50;99.90;;;;;;4978075;28;20215;-88
2023/07/18 12:46:28;;;;;;;1.77;1.05;;;23.00;99.90;;;;;;4959774;28;20214;-87
2023/07/18 12:48:57;;;;;;;0.98;0.82;;;22.80;99.90;;;;;;4979220;28;20234;-87
2023/07/18 12:51:28;;;;;;;1.10;1.00;;;22.90;99.90;;;;;;4983493;28;20183;-88
2023/07/18 12:54:06;;;;;;;0.95;0.70;;;22.80;99.90;;;;;;4994489;28;20171;-88
2023/07/18 12:56:41;;;;;;;1.60;0.82;;;22.90;99.90;;;;;;5007319;28;20211;-88
2023/07/18 12:59:42;;;;;;;;;;;;;;;;;;;;;
2023/07/18 13:03:07;;;;;;;1.00;0.90;;;23.20;99.90;;;;;;4968223;28;20248;-89
2023/07/18 13:09:45;;;;;;;1.70;0.73;;;23.10;99.90;;;;;;4859129;29;20229;-89
2023/07/18 13:12:16;;;;;;;3.72;0.98;;;22.90;99.90;;;;;;4930359;29;20186;-90
2023/07/18 13:14:57;;;;;;;1.85;1.10;;;23.20;99.90;;;;;;4932657;28;20214;-89
2023/07/18 13:17:35;;;;;;;2.67;1.30;;;23.80;99.90;;;;;;4925009;29;20225;-90
2023/07/18 13:20:05;;;;;;;6.90;1.10;;;23.90;99.90;;;;;;4936682;28;20225;-89
2023/07/18 13:22:55;;;;;;;2.97;1.00;;;23.20;99.90;;;;;;5010653;28;20223;-89
2023/07/18 13:25:23;;;;;;;2.83;0.82;;;23.20;99.90;;;;;;4980215;28;20711;-90
2023/07/18 13:28:30;;;;;;;4.13;1.20;;;23.30;99.90;;;;;;4981970;28;20310;-90
2023/07/18 13:31:12;;;;;;;0.82;0.80;;;23.40;99.90;;;;;;4992347;28;20233;-91
2023/07/18 13:33:40;;;;;;;7.25;1.40;;;22.90;99.90;;;;;;4992236;28;20211;-88
2023/07/18 13:36:30;;;;;;;0.93;0.60;;;23.00;99.90;;;;;;4992817;28;20179;-90
2023/07/18 13:39:28;;;;;;;3.90;1.15;;;22.60;99.90;;;;;;4968957;28;20230;-89
2023/07/18 13:42:01;;;;;;;4.75;1.60;;;22.70;99.90;;;;;;4976381;28;20275;-89
2023/07/18 13:44:29;;;;;;;0.88;0.88;;;22.60;99.90;;;;;;4989857;28;20204;-91
2023/07/18 13:47:06;;;;;;;2.17;1.00;;;22.50;99.90;;;;;;4971240;28;20251;-89
2023/07/18 13:49:32;;;;;;;2.25;1.10;;;22.40;99.90;;;;;;4957046;28;20211;-88
2023/07/18 13:52:18;;;;;;;;;;;;;;;;;;;;;
2023/07/18 13:54:44;;;;;;;2.33;0.90;;;22.10;99.90;;;;;;4974086;28;20216;-89
2023/07/18 13:57:33;;;;;;;0.73;0.73;;;21.80;99.90;;;;;;4955937;28;20212;-90
2023/07/18 14:00:02;;;;;;;1.00;0.90;;;21.70;99.90;;;;;;4973017;28;20179;-89
2023/07/18 14:02:36;;;;;;;2.45;1.08;;;21.90;99.90;;;;;;4972066;28;20219;-89
2023/07/18 14:05:16;;;;;;;1.27;1.00;;;22.00;99.90;;;;;;4962777;28;20494;-90
2023/07/18 14:07:47;;;;;;;0.82;0.82;;;22.10;99.90;;;;;;4957681;28;20228;-89
2023/07/18 14:10:34;;;;;;;1.65;0.70;;;22.60;99.90;;;;;;4952608;28;20212;-90
2023/07/18 14:13:05;;;;;;;1.35;1.20;;;23.10;99.90;;;;;;4961668;28;20283;-89
2023/07/18 14:15:37;;;;;;;3.20;1.10;;;23.40;99.90;;;;;;4955908;28;20208;-90
2023/07/18 14:18:21;;;;;;;0.80;0.80;;;23.20;99.90;;;;;;4972596;28;20200;-88
2023/07/18 14:20:46;;;;;;;2.35;1.35;;;23.40;99.90;;;;;;4971027;28;20204;-89
2023/07/18 14:23:20;;;;;;;2.65;1.08;;;23.70;99.90;;;;;;4970181;28;20220;-90
2023/07/18 14:25:54;;;;;;;4.72;1.17;;;23.20;99.90;;;;;;4971135;28;20445;-88